Aeroporto :
LOGIN :

Iscrizione | Disclaimer

   EN    FR    IT 

 










Sommario :    VFR   VFR Marginale   IFR   IFR Intensivo   IFR Molto Intensivo
Visibilità : 
Base nubi : 
>= 8 km
>= 3000ft
5 / 8 km
1000 / 3000 ft
1500m / 5 km
500 / 1000 ft
800 / 1500m
200 / 500 ft
< 800m
< 200 ft
Simboli :   Temporali  Nebbia  Neve Forte  Precipitazioni Forti  Vento > 20 kt
SIGMETs :   Varie  Temporali  Ghiacco  Turbolenza  Onda orograficha  Ceneri Vulcaniche






- Altitudine del aeroporto : 425 ft
- Codice IATA : DTM


EDLW - Dortmund

ULTIMO METAR :
  • 021920Z AUTO 24008KT 9999 // SCT038/// OVC047/// 08/01 Q1011

METARs OBSOLETI :
  • 021850Z AUTO 23009KT 9999 // FEW038/// OVC047/// 08/01 Q1011
  • 021820Z AUTO 23009KT 9999 // OVC044/// 08/01 Q1011
  • 021750Z AUTO 25009KT 220V280 9999 // BKN040/// OVC046/// 08/00 Q1011
  • 021720Z AUTO 27006KT 230V310 9999 // OVC043/// 09/00 Q1011
  • 021650Z AUTO 25009KT 230V300 9999 // OVC044/// 09/M01 Q1011

TAF TAF EDLW
Valido dal 02 a 13 ore il 03 a 12 ore UTC


021220Z 0213/0312 25011KT 9999 BKN040
BECMG 0302/0305 27006KT



MetMap, La meteo Aeronautica in un colpo d'occhio ! - Copyright ORBIFLY Dicembre 2007 - Disclaimer

ORBIFLY MET'MAP TEAM :

Programmazione e sviluppo : Alexandra Zaïnal
Concezione : Baudouin d'Aumeries
Aiuto per la programmazione : Marc-Olivier Méhu
Supporto tecnico e logistico : Manuel Goepfert
Aiuto per la traduzione : Arnaldo La Scala

Contatto : metmap@orbifly.com




FONTI E CREDITI :

   NOAA